createdAt,value
2018-04-17T00:01:01.426Z,18.1
2018-04-17T00:02:10.724Z,18.06
2018-04-17T00:03:20.528Z,18.02
2018-04-17T00:04:30.620Z,17.99
2018-04-17T00:05:40.445Z,17.98
2018-04-17T00:06:50.532Z,17.98
2018-04-17T00:08:00.602Z,18.03
2018-04-17T00:09:10.413Z,18.01
2018-04-17T00:10:20.461Z,17.98
2018-04-17T00:11:30.520Z,18.06
2018-04-17T00:12:40.524Z,18.01
2018-04-17T00:13:50.554Z,18.08
2018-04-17T00:15:00.301Z,18.1
2018-04-17T00:16:10.328Z,18.14
2018-04-17T00:17:20.356Z,18.1
2018-04-17T00:18:30.432Z,18.08
2018-04-17T00:19:40.444Z,18.1
2018-04-17T00:20:50.453Z,17.99
2018-04-17T00:22:00.454Z,17.98
2018-04-17T00:23:10.201Z,17.99
2018-04-17T00:24:20.213Z,18.08
2018-04-17T00:25:30.255Z,18.01
2018-04-17T00:26:40.284Z,17.98
2018-04-17T00:27:50.329Z,18.03
2018-04-17T00:29:00.350Z,17.99
2018-04-17T00:30:10.351Z,17.99
2018-04-17T00:31:20.354Z,17.94
2018-04-17T00:32:30.404Z,17.94
2018-04-17T00:33:40.412Z,17.98
2018-04-17T00:34:50.173Z,17.96
2018-04-17T00:36:00.250Z,17.96
2018-04-17T00:37:10.279Z,17.9
2018-04-17T00:38:19.816Z,17.92
2018-04-17T00:39:29.824Z,17.87
2018-04-17T00:40:39.840Z,17.83
2018-04-17T00:41:49.862Z,17.86
2018-04-17T00:42:59.619Z,17.86
2018-04-17T00:44:09.674Z,17.86
2018-04-17T00:45:19.438Z,17.86
2018-04-17T00:46:29.445Z,17.88
2018-04-17T00:47:39.504Z,17.86
2018-04-17T00:48:49.497Z,17.84
2018-04-17T00:49:59.523Z,17.84
2018-04-17T00:51:09.278Z,17.87
2018-04-17T00:52:19.289Z,17.87
2018-04-17T00:53:29.300Z,17.83
2018-04-17T00:54:39.069Z,17.81
2018-04-17T00:55:49.089Z,17.83
2018-04-17T00:56:59.161Z,17.86
2018-04-17T00:58:09.151Z,17.76
2018-04-17T00:59:18.953Z,17.81
2018-04-17T01:00:28.959Z,17.69
2018-04-17T01:01:38.990Z,17.76
2018-04-17T01:02:48.751Z,17.69
2018-04-17T01:03:58.504Z,17.69
2018-04-17T01:05:08.253Z,17.6
2018-04-17T01:06:18.267Z,17.74
2018-04-17T01:07:28.023Z,17.68
2018-04-17T01:08:38.032Z,17.71
2018-04-17T01:09:48.062Z,17.65
2018-04-17T01:10:58.162Z,17.69
2018-04-17T01:12:08.178Z,17.83
2018-04-17T01:13:18.189Z,17.77
2018-04-17T01:14:27.990Z,17.83
2018-04-17T01:15:38.006Z,17.74
2018-04-17T01:16:48.176Z,17.71
2018-04-17T01:17:57.926Z,17.69
2018-04-17T01:19:07.930Z,17.71
2018-04-17T01:20:17.683Z,17.84
2018-04-17T01:21:27.441Z,17.74
2018-04-17T01:22:37.213Z,17.73
2018-04-17T01:23:47.224Z,17.74
2018-04-17T01:24:56.988Z,17.73
2018-04-17T01:26:06.726Z,17.76
2018-04-17T01:27:16.750Z,17.66
2018-04-17T01:28:26.515Z,17.69
2018-04-17T01:29:36.529Z,17.63
2018-04-17T01:30:46.529Z,17.73
2018-04-17T01:31:56.567Z,17.69
2018-04-17T01:33:06.328Z,17.69
2018-04-17T01:34:16.341Z,17.69
2018-04-17T01:35:26.366Z,17.71
2018-04-17T01:36:36.410Z,17.69
2018-04-17T01:37:46.481Z,17.69
2018-04-17T01:38:56.549Z,17.8
2018-04-17T01:40:06.615Z,17.8
2018-04-17T01:41:16.146Z,17.77
2018-04-17T01:42:25.961Z,17.76
2018-04-17T01:43:35.514Z,17.83
2018-04-17T01:44:45.586Z,17.84
2018-04-17T01:45:55.713Z,17.88
2018-04-17T01:47:05.782Z,17.73
2018-04-17T01:48:15.860Z,17.79
2018-04-17T01:49:25.678Z,17.74
2018-04-17T01:50:35.226Z,17.71
2018-04-17T01:51:45.296Z,17.83
2018-04-17T01:52:55.384Z,17.8
2018-04-17T01:54:05.465Z,17.66
2018-04-17T01:55:15.528Z,17.73
2018-04-17T01:56:25.585Z,17.66
2018-04-17T01:57:35.442Z,17.77
2018-04-17T01:58:45.509Z,17.79
2018-04-17T01:59:55.575Z,17.73
2018-04-17T02:01:05.640Z,17.66
2018-04-17T02:02:15.457Z,17.74
2018-04-17T02:03:25.540Z,17.68
2018-04-17T02:04:35.597Z,17.73
2018-04-17T02:05:45.657Z,17.73
2018-04-17T02:06:55.465Z,17.62
2018-04-17T02:08:05.012Z,17.65
2018-04-17T02:09:15.148Z,17.68
2018-04-17T02:10:25.236Z,17.6
2018-04-17T02:11:35.314Z,17.49
2018-04-17T02:12:45.391Z,17.63
2018-04-17T02:13:54.953Z,17.54
2018-04-17T02:15:04.766Z,17.63
2018-04-17T02:16:14.877Z,17.55
2018-04-17T02:17:24.981Z,17.49
2018-04-17T02:18:34.782Z,17.62
2018-04-17T02:19:44.855Z,17.5
2018-04-17T02:20:54.911Z,17.54
2018-04-17T02:22:04.728Z,17.54
2018-04-17T02:23:14.539Z,17.63
2018-04-17T02:24:24.624Z,17.55
2018-04-17T02:25:34.700Z,17.58
2018-04-17T02:26:44.512Z,17.49
2018-04-17T02:27:54.597Z,17.55
2018-04-17T02:29:04.690Z,17.46
2018-04-17T02:30:14.763Z,17.47
2018-04-17T02:31:24.585Z,17.5
2018-04-17T02:32:34.682Z,17.43
2018-04-17T02:33:44.747Z,17.36
2018-04-17T02:34:54.803Z,17.43
2018-04-17T02:36:04.907Z,17.4
2018-04-17T02:37:14.989Z,17.4
2018-04-17T02:38:25.054Z,17.35
2018-04-17T02:39:34.857Z,17.35
2018-04-17T02:40:44.937Z,17.35
2018-04-17T02:41:55.019Z,17.32
2018-04-17T02:43:05.109Z,17.35
2018-04-17T02:44:15.192Z,17.31
2018-04-17T02:45:25.257Z,17.22
2018-04-17T02:46:35.337Z,17.24
2018-04-17T02:47:45.425Z,17.12
2018-04-17T02:48:55.509Z,17.22
2018-04-17T02:50:05.659Z,17.21
2018-04-17T02:51:15.492Z,17.18
2018-04-17T02:52:25.550Z,17.17
2018-04-17T02:53:35.637Z,17.21
2018-04-17T02:54:45.738Z,17.1
2018-04-17T02:55:55.608Z,17.06
2018-04-17T02:57:05.688Z,17.03
2018-04-17T02:58:15.819Z,17.1
2018-04-17T02:59:25.893Z,17.09
2018-04-17T03:00:35.993Z,17.09
2018-04-17T03:01:46.125Z,17.05
2018-04-17T03:34:10.279Z,14.49
2018-04-17T03:35:20.343Z,14.51
2018-04-17T03:36:30.405Z,14.56
2018-04-17T03:37:40.471Z,14.51
2018-04-17T03:38:50.283Z,14.59
2018-04-17T03:40:00.366Z,14.6
2018-04-17T03:41:10.452Z,14.75
2018-04-17T03:42:20.536Z,14.83
2018-04-17T03:43:30.362Z,14.9
2018-04-17T03:44:40.434Z,15.18
2018-04-17T03:45:50.249Z,15.25
2018-04-17T03:47:00.328Z,15.34
2018-04-17T03:48:10.141Z,15.47
2018-04-17T03:49:20.252Z,15.55
2018-04-17T03:50:30.326Z,15.65
2018-04-17T03:51:40.196Z,15.78
2018-04-17T03:52:50.267Z,15.86
2018-04-17T03:54:00.081Z,15.86
2018-04-17T03:55:09.890Z,15.95
2018-04-17T03:56:19.985Z,16.07
2018-04-17T03:57:29.259Z,16.13
2018-04-17T03:58:39.336Z,16.13
2018-04-17T03:59:49.146Z,16.29
2018-04-17T04:00:59.230Z,16.29
2018-04-17T04:02:09.289Z,16.32
2018-04-17T04:03:19.355Z,16.4
2018-04-17T04:04:29.407Z,16.42
2018-04-17T04:05:39.478Z,16.36
2018-04-17T04:06:49.553Z,16.49
2018-04-17T04:07:59.653Z,16.4
2018-04-17T04:09:09.473Z,16.49
2018-04-17T04:10:19.556Z,16.4
2018-04-17T04:11:29.623Z,16.51
2018-04-17T04:12:39.442Z,16.59
2018-04-17T04:13:49.256Z,16.58
2018-04-17T04:14:59.162Z,16.54
2018-04-17T04:16:08.724Z,16.65
2018-04-17T04:17:18.860Z,16.66
2018-04-17T04:18:28.956Z,16.69
2018-04-17T04:19:39.035Z,16.69
2018-04-17T04:20:48.648Z,16.65
2018-04-17T04:21:58.714Z,16.66
2018-04-17T04:23:08.538Z,16.72
2018-04-17T04:24:18.638Z,16.77
2018-04-17T04:25:28.734Z,16.77
2018-04-17T04:26:38.604Z,16.85
2018-04-17T04:27:48.681Z,16.91
2018-04-17T04:28:58.756Z,16.95
2018-04-17T04:30:08.302Z,16.88
2018-04-17T04:31:18.106Z,16.85
2018-04-17T04:32:27.946Z,16.88
2018-04-17T04:33:38.005Z,16.88
2018-04-17T04:34:48.105Z,16.91
2018-04-17T04:35:58.069Z,16.87
2018-04-17T04:37:08.139Z,16.92
2018-04-17T04:38:18.241Z,16.97
2018-04-17T04:39:28.053Z,17.05
2018-04-17T04:40:37.867Z,17.05
2018-04-17T04:41:47.956Z,17.06
2018-04-17T04:42:58.032Z,17.15
2018-04-17T04:44:07.844Z,17.17
2018-04-17T04:45:17.928Z,17.09
2018-04-17T04:46:28.037Z,17.21
2018-04-17T04:47:38.110Z,17.22
2018-04-17T04:48:48.202Z,17.27
2018-04-17T04:49:58.320Z,17.38
2018-04-17T04:51:08.398Z,17.35
2018-04-17T04:52:18.467Z,17.3
2018-04-17T04:53:28.291Z,17.43
2018-04-17T04:54:38.379Z,17.36
2018-04-17T04:55:48.522Z,17.45
2018-04-17T04:56:58.333Z,17.4
2018-04-17T04:58:08.410Z,17.4
2018-04-17T04:59:18.500Z,17.43
2018-04-17T05:00:28.557Z,17.57
2018-04-17T05:01:38.680Z,17.55
2018-04-17T05:02:48.813Z,17.52
2018-04-17T05:03:58.629Z,17.5
2018-04-17T05:05:08.444Z,17.71
2018-04-17T05:06:18.261Z,17.68
2018-04-17T05:07:28.341Z,17.79
2018-04-17T05:08:38.417Z,17.83
2018-04-17T05:09:48.198Z,17.86
2018-04-17T05:10:58.272Z,17.94
2018-04-17T05:12:08.353Z,17.96
2018-04-17T05:13:18.182Z,18.03
2018-04-17T05:14:28.256Z,18.06
2018-04-17T05:15:38.330Z,18.11
2018-04-17T05:16:48.165Z,18.13
2018-04-17T05:17:57.723Z,18.17
2018-04-17T05:19:07.800Z,18.29
2018-04-17T05:20:17.863Z,18.31
2018-04-17T05:21:27.664Z,18.47
2018-04-17T05:22:37.725Z,18.44
2018-04-17T05:23:47.630Z,18.5
2018-04-17T05:24:57.821Z,18.56
2018-04-17T05:26:07.911Z,18.74
2018-04-17T05:27:17.983Z,18.79
2018-04-17T05:28:28.103Z,18.84
2018-04-17T05:29:38.186Z,18.93
2018-04-17T05:30:48.256Z,19.12
2018-04-17T05:31:57.817Z,19.32
2018-04-17T05:33:07.907Z,19.47
2018-04-17T05:34:17.524Z,19.67
2018-04-17T05:35:27.416Z,19.75
2018-04-17T05:36:37.538Z,19.85
2018-04-17T05:37:47.638Z,19.95
2018-04-17T05:38:57.717Z,19.85
2018-04-17T05:40:07.601Z,19.97
2018-04-17T05:41:17.806Z,19.83
2018-04-17T05:42:27.888Z,20.04
2018-04-17T05:43:37.737Z,20.04
2018-04-17T05:44:47.818Z,20.29
2018-04-17T05:45:57.646Z,20.37
2018-04-17T05:47:07.459Z,20.44
2018-04-17T05:48:17.583Z,20.37
2018-04-17T05:49:27.726Z,20.38
2018-04-17T05:50:37.807Z,20.4
2018-04-17T05:51:47.365Z,20.35
2018-04-17T05:52:57.198Z,20.46
2018-04-17T05:54:07.289Z,20.46
2018-04-17T05:55:17.350Z,20.54
2018-04-17T05:56:27.189Z,20.46
2018-04-17T05:57:36.763Z,20.42
2018-04-17T05:58:46.638Z,20.44
2018-04-17T05:59:56.743Z,20.53
2018-04-17T06:01:06.817Z,20.64
2018-04-17T06:02:16.884Z,20.72
2018-04-17T06:03:26.421Z,20.68
2018-04-17T06:04:35.979Z,20.67
2018-04-17T06:05:46.115Z,20.63
2018-04-17T06:06:56.173Z,20.61
2018-04-17T06:08:06.286Z,20.63
2018-04-17T06:09:16.386Z,20.68
2018-04-17T06:10:26.203Z,20.86
2018-04-17T06:11:36.310Z,20.76
2018-04-17T06:12:46.388Z,20.81
2018-04-17T06:13:56.474Z,20.72
2018-04-17T06:15:06.557Z,20.71
2018-04-17T06:16:16.651Z,20.64
2018-04-17T06:17:26.745Z,20.64
2018-04-17T06:18:36.861Z,20.76
2018-04-17T06:19:46.951Z,20.79
2018-04-17T06:20:57.042Z,20.83
2018-04-17T06:22:07.128Z,20.81
2018-04-17T06:23:17.329Z,20.75
2018-04-17T06:24:27.559Z,20.78
2018-04-17T06:25:37.662Z,20.83
2018-04-17T06:26:47.478Z,20.81
2018-04-17T06:27:57.550Z,20.81
2018-04-17T06:29:07.675Z,20.81
2018-04-17T06:30:16.977Z,20.75
2018-04-17T06:31:27.061Z,20.78
2018-04-17T06:32:37.158Z,20.78
2018-04-17T06:33:47.250Z,20.78
2018-04-17T06:34:57.446Z,20.74
2018-04-17T06:36:07.338Z,20.76
2018-04-17T06:37:17.194Z,20.81
2018-04-17T06:38:27.276Z,20.75
2018-04-17T06:39:37.480Z,20.82
2018-04-17T06:40:47.300Z,20.81
2018-04-17T06:41:57.511Z,20.81
2018-04-17T06:43:07.763Z,20.93
2018-04-17T06:44:17.861Z,20.94
2018-04-17T06:45:27.696Z,20.93
2018-04-17T06:46:37.782Z,20.97
2018-04-17T06:47:48.006Z,21.01
2018-04-17T06:48:57.555Z,21.09
2018-04-17T06:50:07.665Z,21.03
2018-04-17T06:51:17.755Z,21.11
2018-04-17T06:52:27.578Z,21.11
2018-04-17T06:53:37.702Z,21.16
2018-04-17T06:54:47.775Z,21.15
2018-04-17T06:55:57.872Z,21.19
2018-04-17T06:57:07.704Z,21.38
2018-04-17T06:58:17.810Z,21.36
2018-04-17T06:59:27.901Z,21.46
2018-04-17T07:00:37.727Z,21.51
2018-04-17T07:01:47.592Z,21.53
2018-04-17T07:02:57.685Z,21.52
2018-04-17T07:04:07.769Z,21.59
2018-04-17T07:05:17.961Z,21.71
2018-04-17T07:06:28.206Z,21.71
2018-04-17T07:07:38.284Z,21.74
2018-04-17T07:08:48.356Z,21.83
2018-04-17T07:09:58.435Z,21.82
2018-04-17T07:11:08.520Z,21.92
2018-04-17T07:12:18.670Z,21.92
2018-04-17T07:13:28.757Z,21.93
2018-04-17T07:14:38.848Z,21.96
2018-04-17T07:15:48.742Z,22.11
2018-04-17T07:16:59.015Z,22.09
2018-04-17T07:18:09.230Z,22.27
2018-04-17T07:19:19.334Z,22.46
2018-04-17T07:20:29.424Z,22.48
2018-04-17T07:21:39.524Z,22.61
2018-04-17T07:22:49.622Z,22.63
2018-04-17T07:23:59.730Z,22.61
2018-04-17T07:25:09.840Z,22.7
2018-04-17T07:26:19.937Z,22.63
2018-04-17T07:27:29.765Z,22.63
2018-04-17T07:28:39.866Z,22.91
2018-04-17T07:29:49.955Z,23.04
2018-04-17T07:31:00.064Z,22.97
2018-04-17T07:32:10.155Z,22.79
2018-04-17T07:33:20.251Z,22.76
2018-04-17T07:34:30.351Z,22.59
2018-04-17T07:35:40.504Z,22.51
2018-04-17T07:36:50.593Z,22.48
2018-04-17T07:38:00.676Z,22.42
2018-04-17T07:39:10.765Z,22.63
2018-04-17T07:40:20.612Z,22.99
2018-04-17T07:41:31.046Z,23.04
2018-04-17T07:42:40.881Z,22.89
2018-04-17T07:43:50.955Z,22.75
2018-04-17T07:45:00.767Z,22.71
2018-04-17T07:46:10.833Z,22.61
2018-04-17T07:47:20.914Z,22.81
2018-04-17T07:48:31.102Z,22.81
2018-04-17T07:49:41.193Z,22.75
2018-04-17T07:50:51.335Z,22.52
2018-04-17T07:52:01.414Z,22.52
2018-04-17T07:53:11.493Z,22.54
2018-04-17T07:54:21.595Z,22.6
2018-04-17T07:55:31.183Z,22.7
2018-04-17T07:56:41.288Z,22.81
2018-04-17T07:57:51.392Z,22.86
2018-04-17T07:59:01.481Z,23
2018-04-17T08:00:11.294Z,23.01
2018-04-17T08:01:21.139Z,23
2018-04-17T08:02:31.227Z,23.12
2018-04-17T08:03:41.308Z,23.25
2018-04-17T08:04:51.398Z,23.38
2018-04-17T08:06:01.493Z,23.55
2018-04-17T08:07:11.606Z,23.75
2018-04-17T08:08:21.295Z,23.82
2018-04-17T08:09:31.382Z,23.99
2018-04-17T08:10:41.198Z,24.09
2018-04-17T08:11:51.462Z,24.04
2018-04-17T08:13:01.441Z,24.18
2018-04-17T08:14:11.519Z,24.3
2018-04-17T08:15:21.602Z,24.34
2018-04-17T08:16:31.695Z,24.66
2018-04-17T08:17:41.915Z,25.05
2018-04-17T08:18:52.005Z,25.39
2018-04-17T08:20:02.101Z,25.41
2018-04-17T08:21:12.200Z,25.29
2018-04-17T08:22:22.017Z,24.97
2018-04-17T08:23:32.160Z,24.87
2018-04-17T08:24:42.247Z,25.05
2018-04-17T08:25:52.383Z,25.05
2018-04-17T08:27:02.503Z,25.04
2018-04-17T08:28:12.618Z,24.86
2018-04-17T08:29:22.720Z,24.92
2018-04-17T08:30:32.833Z,24.92
2018-04-17T08:31:42.919Z,24.77
2018-04-17T08:32:53.030Z,24.87
2018-04-17T08:34:02.878Z,24.97
2018-04-17T08:35:13.045Z,25.08
2018-04-17T08:36:23.211Z,25.05
2018-04-17T08:37:33.057Z,24.93
2018-04-17T08:38:42.895Z,24.87
2018-04-17T08:39:52.731Z,24.78
2018-04-17T08:41:02.592Z,24.74
2018-04-17T08:42:12.708Z,24.74
2018-04-17T08:43:22.799Z,24.71
2018-04-17T08:44:32.646Z,24.9
2018-04-17T08:45:42.761Z,25.04
2018-04-17T08:46:52.857Z,25.12
2018-04-17T08:48:02.962Z,25.17
2018-04-17T08:49:13.058Z,25.39
2018-04-17T08:50:23.154Z,25.32
2018-04-17T08:51:32.990Z,25.23
2018-04-17T08:52:43.090Z,25.07
2018-04-17T08:53:52.911Z,25.07
2018-04-17T08:55:03.009Z,25.04
2018-04-17T08:56:13.117Z,25.15
2018-04-17T08:57:23.233Z,24.85
2018-04-17T08:58:33.340Z,24.66
2018-04-17T08:59:43.212Z,24.82
2018-04-17T09:00:53.048Z,24.85
2018-04-17T09:02:03.133Z,24.85
2018-04-17T09:03:12.708Z,24.92
2018-04-17T09:04:22.801Z,24.83
2018-04-17T09:05:32.966Z,24.75
2018-04-17T09:06:43.043Z,24.8
2018-04-17T09:07:53.150Z,24.89
2018-04-17T09:09:03.264Z,24.8
2018-04-17T09:10:13.423Z,24.94
2018-04-17T09:11:23.526Z,25.24
2018-04-17T09:12:33.612Z,25.45
2018-04-17T09:13:43.696Z,25.63
2018-04-17T09:14:53.772Z,25.86
2018-04-17T09:16:03.873Z,26.01
2018-04-17T09:17:14.102Z,26
2018-04-17T09:18:24.221Z,25.82
2018-04-17T09:19:34.330Z,25.44
2018-04-17T09:20:44.677Z,25.59
2018-04-17T09:21:54.565Z,25.75
2018-04-17T09:23:04.665Z,25.82
2018-04-17T09:24:14.503Z,25.84
2018-04-17T09:25:24.594Z,25.59
2018-04-17T09:26:34.693Z,25.59
2018-04-17T09:27:44.262Z,25.82
2018-04-17T09:28:54.333Z,26.26
2018-04-17T09:30:04.667Z,26.44
2018-04-17T09:31:14.755Z,26.35
2018-04-17T09:32:24.860Z,25.91
2018-04-17T09:33:34.741Z,25.85
2018-04-17T09:34:44.841Z,25.93
2018-04-17T09:35:55.028Z,26.3
2018-04-17T09:37:05.345Z,26.15
2018-04-17T09:38:15.429Z,25.71
2018-04-17T09:39:25.598Z,25.84
2018-04-17T09:40:35.445Z,26.03
2018-04-17T09:41:45.554Z,26.22
2018-04-17T09:42:55.644Z,26.12
2018-04-17T09:44:05.744Z,25.75
2018-04-17T09:45:15.879Z,25.86
2018-04-17T09:46:25.978Z,25.94
2018-04-17T09:47:36.076Z,26.16
2018-04-17T09:48:46.178Z,26.3
2018-04-17T09:49:56.329Z,26.03
2018-04-17T09:51:06.523Z,25.81
2018-04-17T09:52:16.588Z,25.89
2018-04-17T09:53:26.677Z,25.88
2018-04-17T09:54:36.774Z,26.11
2018-04-17T09:55:46.867Z,26.32
2018-04-17T09:56:57.026Z,26.63
2018-04-17T09:58:07.147Z,26.84
2018-04-17T09:59:16.467Z,26.82
2018-04-17T10:00:26.570Z,26.84
2018-04-17T10:01:36.684Z,26.44
2018-04-17T10:02:46.927Z,26.34
2018-04-17T10:03:57.052Z,26.24
2018-04-17T10:05:07.190Z,26.27
2018-04-17T10:06:16.992Z,26.56
2018-04-17T10:07:27.085Z,26.63
2018-04-17T10:08:37.173Z,26.78
2018-04-17T10:09:47.003Z,26.93
2018-04-17T10:10:57.088Z,27.01
2018-04-17T10:12:06.941Z,27.11
2018-04-17T10:13:16.765Z,27.36
2018-04-17T10:14:26.853Z,27.65
2018-04-17T10:15:36.955Z,27.13
2018-04-17T10:16:47.048Z,26.86
2018-04-17T10:17:57.169Z,26.59
2018-04-17T10:19:07.303Z,26.26
2018-04-17T10:20:16.918Z,26.32
2018-04-17T10:21:26.755Z,26.53
2018-04-17T10:22:36.651Z,26.71
2018-04-17T10:23:46.730Z,26.91
2018-04-17T10:24:56.420Z,27.12
2018-04-17T10:26:06.526Z,27.3
2018-04-17T10:27:16.368Z,27.27
2018-04-17T10:28:26.212Z,27.26
2018-04-17T10:29:36.353Z,27.24
2018-04-17T10:30:46.443Z,27.19
2018-04-17T10:31:56.286Z,26.86
2018-04-17T10:33:06.435Z,27.06
2018-04-17T10:34:16.337Z,27.09
2018-04-17T10:35:26.451Z,27.27
2018-04-17T10:36:36.578Z,27.37
2018-04-17T10:37:46.417Z,27.66
2018-04-17T10:38:56.253Z,27.76
2018-04-17T10:40:06.078Z,27.66
2018-04-17T10:41:16.188Z,27.53
2018-04-17T10:42:26.315Z,27.45
2018-04-17T10:43:36.436Z,27.34
2018-04-17T10:44:46.529Z,27.08
2018-04-17T10:45:56.635Z,26.89
2018-04-17T10:47:06.738Z,26.78
2018-04-17T10:48:16.848Z,26.56
2018-04-17T10:49:27.194Z,26.68
2018-04-17T10:50:36.776Z,26.9
2018-04-17T10:51:46.864Z,26.94
2018-04-17T10:52:57.309Z,27.13
2018-04-17T10:54:09.360Z,27.19
2018-04-17T10:55:23.203Z,27.28
2018-04-17T10:56:39.306Z,27.31
2018-04-17T10:57:54.565Z,27.37
2018-04-17T10:59:04.667Z,27.36
2018-04-17T11:00:15.014Z,27.33
2018-04-17T11:01:25.154Z,27.37
2018-04-17T11:02:35.260Z,27.21
2018-04-17T11:03:45.373Z,27.16
2018-04-17T11:04:55.713Z,27.23
2018-04-17T11:06:05.546Z,27.12
2018-04-17T11:07:15.642Z,26.82
2018-04-17T11:08:25.826Z,26.96
2018-04-17T11:09:35.654Z,27.04
2018-04-17T11:10:45.751Z,27.13
2018-04-17T11:11:55.572Z,27.27
2018-04-17T11:13:04.870Z,27.37
2018-04-17T11:14:14.978Z,27.42
2018-04-17T11:15:25.078Z,27.51
2018-04-17T11:16:35.174Z,27.59
2018-04-17T11:17:45.013Z,27.93
2018-04-17T11:18:55.114Z,27.84
2018-04-17T11:20:05.273Z,27.61
2018-04-17T11:21:15.372Z,27.49
2018-04-17T11:22:25.219Z,27.83
2018-04-17T11:23:35.315Z,28.11
2018-04-17T11:24:45.401Z,28.27
2018-04-17T11:25:55.493Z,28.41
2018-04-17T11:27:05.575Z,28.67
2018-04-17T11:28:15.393Z,28.7
2018-04-17T11:29:25.226Z,28.01
2018-04-17T11:30:35.063Z,28.09
2018-04-17T11:31:44.904Z,27.62
2018-04-17T11:32:54.747Z,27.27
2018-04-17T11:34:04.858Z,27.61
2018-04-17T11:35:14.998Z,27.94
2018-04-17T11:36:25.124Z,28.11
2018-04-17T11:37:34.970Z,28.2
2018-04-17T11:38:44.816Z,28.26
2018-04-17T11:39:54.921Z,27.65
2018-04-17T11:41:05.217Z,27.09
2018-04-17T11:42:15.054Z,27.27
2018-04-17T11:43:24.891Z,27.51
2018-04-17T11:44:35.006Z,27.72
2018-04-17T11:45:45.112Z,27.83
2018-04-17T11:46:55.260Z,27.98
2018-04-17T11:48:05.805Z,28.21
2018-04-17T11:49:15.913Z,28.51
2018-04-17T11:50:26.007Z,28.7
2018-04-17T11:51:36.106Z,28.75
2018-04-17T11:52:46.296Z,28.86
2018-04-17T11:53:56.395Z,28.51
2018-04-17T11:55:06.505Z,28.9
2018-04-17T11:56:16.603Z,29.02
2018-04-17T11:57:26.720Z,29.11
2018-04-17T11:58:36.945Z,28.43
2018-04-17T11:59:46.769Z,27.98
2018-04-17T12:00:56.877Z,27.59
2018-04-17T12:02:06.959Z,27.21
2018-04-17T12:03:17.262Z,27.42
2018-04-17T12:04:27.094Z,27.86
2018-04-17T12:05:37.189Z,28.03
2018-04-17T12:06:47.294Z,28.28
2018-04-17T12:07:57.428Z,28.46
2018-04-17T12:09:07.307Z,28.68
2018-04-17T12:10:17.410Z,28.76
2018-04-17T12:11:27.504Z,28.88
2018-04-17T12:12:37.603Z,28.85
2018-04-17T12:13:47.707Z,28.51
2018-04-17T12:14:57.802Z,28.17
2018-04-17T12:16:07.912Z,27.89
2018-04-17T12:17:17.786Z,27.62
2018-04-17T12:18:27.879Z,27.89
2018-04-17T12:19:37.984Z,28.12
2018-04-17T12:20:47.822Z,28.39
2018-04-17T12:21:57.945Z,28.54
2018-04-17T12:23:08.056Z,28.65
2018-04-17T12:24:18.158Z,28.12
2018-04-17T12:25:27.990Z,28.51
2018-04-17T12:26:38.141Z,28.86
2018-04-17T12:27:48.252Z,29.03
2018-04-17T12:28:58.087Z,29.23
2018-04-17T12:30:07.924Z,29.15
2018-04-17T12:31:18.023Z,29.11
2018-04-17T12:32:28.111Z,28.98
2018-04-17T12:33:38.213Z,28.64
2018-04-17T12:34:48.558Z,28.49
2018-04-17T12:35:58.661Z,28.48
2018-04-17T12:37:08.788Z,28.61
2018-04-17T12:38:18.868Z,28.46
2018-04-17T12:39:28.973Z,28.2
2018-04-17T12:40:39.069Z,28.45
2018-04-17T12:41:49.188Z,28.43
2018-04-17T12:42:59.303Z,28.31
2018-04-17T12:44:09.304Z,28.68
2018-04-17T12:45:19.397Z,28.91
2018-04-17T12:46:29.494Z,29.36
2018-04-17T12:47:39.599Z,29.58
2018-04-17T12:48:49.435Z,30.02
2018-04-17T12:49:59.548Z,30.13
2018-04-17T12:51:09.650Z,30.48
2018-04-17T12:52:19.754Z,30.49
2018-04-17T12:53:29.860Z,30.29
2018-04-17T12:54:39.970Z,30.26
2018-04-17T12:55:49.802Z,29.73
2018-04-17T12:56:59.951Z,29.79
2018-04-17T12:58:10.071Z,29.92
2018-04-17T12:59:20.177Z,30.04
2018-04-17T13:00:30.023Z,30.14
2018-04-17T13:01:39.912Z,30.19
2018-04-17T13:02:50.039Z,30.1
2018-04-17T13:04:00.131Z,29.75
2018-04-17T13:05:09.974Z,29.67
2018-04-17T13:06:20.065Z,29.38
2018-04-17T13:07:30.209Z,29.23
2018-04-17T13:08:40.308Z,29.4
2018-04-17T13:09:50.137Z,29.42
2018-04-17T13:11:00.242Z,29.57
2018-04-17T13:12:09.809Z,29.73
2018-04-17T13:13:19.959Z,29.57
2018-04-17T13:14:29.792Z,29.81
2018-04-17T13:15:39.667Z,29.95
2018-04-17T13:16:49.894Z,30.11
2018-04-17T13:17:59.993Z,30.29
2018-04-17T13:19:10.141Z,30.25
2018-04-17T13:20:20.221Z,30
2018-04-17T13:21:30.327Z,29.65
2018-04-17T13:22:40.446Z,29.42
2018-04-17T13:23:50.588Z,29.06
2018-04-17T13:25:00.488Z,28.79
2018-04-17T13:26:10.332Z,28.54
2018-04-17T13:27:20.446Z,28.65
2018-04-17T13:28:30.534Z,28.43
2018-04-17T13:29:40.682Z,28.27
2018-04-17T13:30:50.512Z,28.26
2018-04-17T13:32:00.628Z,28.54
2018-04-17T13:33:10.725Z,28.78
2018-04-17T13:34:20.838Z,28.53
2018-04-17T13:35:30.967Z,28.76
2018-04-17T13:36:41.098Z,28.65
2018-04-17T13:37:51.233Z,28.85
2018-04-17T13:39:01.342Z,28.88
2018-04-17T13:40:11.454Z,28.83
2018-04-17T13:41:21.537Z,28.98
2018-04-17T13:42:31.363Z,28.9
2018-04-17T13:43:41.214Z,28.73
2018-04-17T13:44:51.314Z,28.36
2018-04-17T13:46:01.431Z,28.43
2018-04-17T13:47:11.552Z,28.51
2018-04-17T13:48:21.705Z,28.8
2018-04-17T13:49:31.782Z,29.01
2018-04-17T13:50:41.888Z,29.38
2018-04-17T13:51:51.960Z,29.45
2018-04-17T13:53:02.051Z,29.47
2018-04-17T13:54:12.363Z,29.58
2018-04-17T13:55:22.465Z,29.6
2018-04-17T13:56:32.341Z,29.73
2018-04-17T13:57:42.449Z,29.76
2018-04-17T13:58:52.557Z,29.72
2018-04-17T14:00:02.697Z,29.6
2018-04-17T14:01:12.828Z,29.65
2018-04-17T14:02:22.921Z,29.54
2018-04-17T14:03:32.802Z,29.58
2018-04-17T14:04:42.902Z,29.29
2018-04-17T14:05:52.985Z,29.11
2018-04-17T14:07:02.823Z,28.91
2018-04-17T14:08:12.931Z,28.68
2018-04-17T14:09:23.034Z,28.36
2018-04-17T14:10:33.194Z,28.11
2018-04-17T14:11:43.327Z,27.87
2018-04-17T14:12:53.422Z,27.59
2018-04-17T14:14:03.261Z,27.43
2018-04-17T14:15:13.362Z,27.37
2018-04-17T14:16:23.479Z,27.13
2018-04-17T14:17:33.536Z,27.05
2018-04-17T14:18:43.364Z,26.94
2018-04-17T14:19:53.475Z,26.82
2018-04-17T14:21:03.598Z,26.79
2018-04-17T14:22:13.418Z,26.61
2018-04-17T14:23:23.575Z,26.67
2018-04-17T14:24:33.665Z,26.63
2018-04-17T14:25:43.780Z,26.81
2018-04-17T14:26:53.614Z,27.11
2018-04-17T14:28:03.763Z,27.37
2018-04-17T14:29:13.885Z,27.61
2018-04-17T14:30:24.009Z,28.01
2018-04-17T14:31:33.852Z,28.17
2018-04-17T14:32:43.956Z,28.46
2018-04-17T14:33:54.059Z,28.88
2018-04-17T14:35:04.182Z,29.08
2018-04-17T14:36:14.279Z,29.15
2018-04-17T14:37:24.411Z,29.28
2018-04-17T14:38:34.522Z,29.3
2018-04-17T14:39:44.619Z,29.18
2018-04-17T14:40:54.458Z,29.08
2018-04-17T14:42:04.558Z,29.01
2018-04-17T14:43:14.412Z,28.91
2018-04-17T14:44:24.545Z,28.6
2018-04-17T14:45:34.652Z,28.49
2018-04-17T14:46:44.758Z,28.38
2018-04-17T14:47:54.880Z,28.23
2018-04-17T14:49:04.985Z,28.12
2018-04-17T14:50:15.081Z,28.02
2018-04-17T14:51:25.167Z,28.01
2018-04-17T14:52:35.315Z,27.79
2018-04-17T14:53:45.162Z,27.71
2018-04-17T14:54:55.008Z,27.74
2018-04-17T14:56:05.099Z,27.49
2018-04-17T14:57:15.186Z,27.27
2018-04-17T14:58:25.354Z,27.36
2018-04-17T14:59:35.451Z,27.41
2018-04-17T15:00:45.553Z,27.45
2018-04-17T15:01:55.386Z,27.42
2018-04-17T15:03:05.560Z,27.38
2018-04-17T15:04:15.686Z,27.36
2018-04-17T15:05:25.771Z,27.28
2018-04-17T15:06:35.873Z,27.16
2018-04-17T15:07:45.468Z,27.12
2018-04-17T15:08:55.684Z,27.04
2018-04-17T15:10:05.783Z,26.94
2018-04-17T15:11:15.909Z,26.94
2018-04-17T15:12:26.262Z,26.99
2018-04-17T15:13:36.375Z,26.9
2018-04-17T15:14:46.477Z,26.86
2018-04-17T15:15:56.582Z,26.86
2018-04-17T15:17:06.701Z,26.78
2018-04-17T15:18:16.509Z,26.72
2018-04-17T15:19:26.633Z,26.74
2018-04-17T15:20:36.737Z,26.63
2018-04-17T15:21:46.576Z,26.71
2018-04-17T15:22:56.708Z,26.71
2018-04-17T15:24:07.049Z,26.67
2018-04-17T15:25:16.893Z,26.71
2018-04-17T15:26:26.997Z,26.71
2018-04-17T15:27:37.232Z,26.63
2018-04-17T15:28:47.361Z,26.59
2018-04-17T15:29:57.218Z,26.6
2018-04-17T15:31:07.332Z,26.56
2018-04-17T15:32:17.431Z,26.54
2018-04-17T15:33:27.308Z,26.47
2018-04-17T15:34:37.420Z,26.42
2018-04-17T15:35:47.246Z,26.42